Sy Liara — 2BSK4 — position and weather

sailwx.info

Track history (hours):
 
Tides and Currents Weather Stations Pressure Air Temp Water Temp Dewpoint Dewpoint Depression Visibility Wind Speed Wind Dir Waves Ship Positions

Sy Liara

Last reported at 2015-Jul-24 08:33 UTC. Time now 2015-Jul-28 10:24 UTC.
Position N 55°58' W 004°48'.

Length 30 m.

Type: Sailing vessel. MMSI: 235068934.

Date/timePositionNaut miles runAvg speedWind from/ knotsBaromVisibWave heightAir tempDewpointWater temp
2015-Jul-24 08:33N 55°58' W 004°48'56 7.9
2015-Jul-24 01:32N 55°15' W 005°51'1111.3
2015-Jul-24 00:32N 55°20' W 006°09'1010.1
2015-Jul-23 23:31N 55°22' W 006°27'  
2015-Jul-21 12:16N 54°37' W 008°43'6 8.6
2015-Jul-21 11:33N 54°35' W 008°33'5 4.7
2015-Jul-21 10:32N 54°38' W 008°26'0 0.0
2015-Jul-21 09:32N 54°38' W 008°26'0 0.2
2015-Jul-21 08:32N 54°38' W 008°26'0 0.0
2015-Jul-21 07:32N 54°38' W 008°26'0 0.0
2015-Jul-21 06:32N 54°38' W 008°26'0 0.0
2015-Jul-21 05:32N 54°38' W 008°26'0 0.0
2015-Jul-21 04:32N 54°38' W 008°26'0 0.0
2015-Jul-21 03:32N 54°38' W 008°26'0 0.0
2015-Jul-21 02:32N 54°38' W 008°26'0 0.0
2015-Jul-21 01:32N 54°38' W 008°26'0 0.0
2015-Jul-21 00:32N 54°38' W 008°26'0 0.0
2015-Jul-20 23:32N 54°38' W 008°26'0 0.0
2015-Jul-20 22:32N 54°38' W 008°26'0 0.0
2015-Jul-20 21:32N 54°38' W 008°26'0 0.0
2015-Jul-20 20:32N 54°38' W 008°26'0 0.0
2015-Jul-20 19:32N 54°38' W 008°26'0 0.0
2015-Jul-20 18:32N 54°38' W 008°26'0 0.0
2015-Jul-20 17:32N 54°38' W 008°26'0 0.3
2015-Jul-20 16:33N 54°38' W 008°26'9 8.7
2015-Jul-20 15:33N 54°33' W 008°39'93 3.1
2015-Jul-19 09:16N 53°10' W 009°49'5 6.6
2015-Jul-19 08:28N 53°10' W 009°41'3 2.7
2015-Jul-19 07:29N 53°07' W 009°39'0 0.0
2015-Jul-19 06:26N 53°07' W 009°39'0 0.0
2015-Jul-19 05:32N 53°07' W 009°39'0 0.0
2015-Jul-19 04:32N 53°07' W 009°39'0 0.0
2015-Jul-19 00:24N 53°07' W 009°39'0 0.0
2015-Jul-18 23:32N 53°07' W 009°39'0 0.0
2015-Jul-18 22:23N 53°07' W 009°39'  
2015-Jul-14 14:33N 51°31' W 009°52'6 6.4
2015-Jul-14 13:33N 51°27' W 009°45'2 1.9
2015-Jul-14 12:32N 51°28' W 009°43'0 0.0
2015-Jul-14 11:32N 51°28' W 009°43'0 0.0
2015-Jul-14 10:32N 51°28' W 009°43'0 0.0
2015-Jul-14 09:32N 51°28' W 009°43'  
Track history (hours):
 
Tides and Currents Weather Stations Pressure Air Temp Water Temp Dewpoint Dewpoint Depression Visibility Wind Speed Wind Dir Waves Ship Positions

Sy Liara

Last reported at 2015-Jul-24 08:33 UTC. Time now 2015-Jul-28 10:24 UTC.
Position N 55°58' W 004°48'.

Length 30 m.

Type: Sailing vessel. MMSI: 235068934.

Date/timePositionNaut miles runAvg speedWind from/ knotsBaromVisibWave heightAir tempDewpointWater temp
2015-Jul-24 08:33N 55°58' W 004°48'56 7.9
2015-Jul-24 01:32N 55°15' W 005°51'1111.3
2015-Jul-24 00:32N 55°20' W 006°09'1010.1
2015-Jul-23 23:31N 55°22' W 006°27'  
2015-Jul-21 12:16N 54°37' W 008°43'6 8.6
2015-Jul-21 11:33N 54°35' W 008°33'5 4.7
2015-Jul-21 10:32N 54°38' W 008°26'0 0.0
2015-Jul-21 09:32N 54°38' W 008°26'0 0.2
2015-Jul-21 08:32N 54°38' W 008°26'0 0.0
2015-Jul-21 07:32N 54°38' W 008°26'0 0.0
2015-Jul-21 06:32N 54°38' W 008°26'0 0.0
2015-Jul-21 05:32N 54°38' W 008°26'0 0.0
2015-Jul-21 04:32N 54°38' W 008°26'0 0.0
2015-Jul-21 03:32N 54°38' W 008°26'0 0.0
2015-Jul-21 02:32N 54°38' W 008°26'0 0.0
2015-Jul-21 01:32N 54°38' W 008°26'0 0.0
2015-Jul-21 00:32N 54°38' W 008°26'0 0.0
2015-Jul-20 23:32N 54°38' W 008°26'0 0.0
2015-Jul-20 22:32N 54°38' W 008°26'0 0.0
2015-Jul-20 21:32N 54°38' W 008°26'0 0.0
2015-Jul-20 20:32N 54°38' W 008°26'0 0.0
2015-Jul-20 19:32N 54°38' W 008°26'0 0.0
2015-Jul-20 18:32N 54°38' W 008°26'0 0.0
2015-Jul-20 17:32N 54°38' W 008°26'0 0.3
2015-Jul-20 16:33N 54°38' W 008°26'9 8.7
2015-Jul-20 15:33N 54°33' W 008°39'93 3.1
2015-Jul-19 09:16N 53°10' W 009°49'5 6.6
2015-Jul-19 08:28N 53°10' W 009°41'3 2.7
2015-Jul-19 07:29N 53°07' W 009°39'0 0.0
2015-Jul-19 06:26N 53°07' W 009°39'0 0.0
2015-Jul-19 05:32N 53°07' W 009°39'0 0.0
2015-Jul-19 04:32N 53°07' W 009°39'0 0.0
2015-Jul-19 00:24N 53°07' W 009°39'0 0.0
2015-Jul-18 23:32N 53°07' W 009°39'0 0.0
2015-Jul-18 22:23N 53°07' W 009°39'  
2015-Jul-14 14:33N 51°31' W 009°52'6 6.4
2015-Jul-14 13:33N 51°27' W 009°45'2 1.9
2015-Jul-14 12:32N 51°28' W 009°43'0 0.0
2015-Jul-14 11:32N 51°28' W 009°43'0 0.0
2015-Jul-14 10:32N 51°28' W 009°43'0 0.0
2015-Jul-14 09:32N 51°28' W 009°43'  

Dump ship's entire track history